sensor_id;sensor_type;location;lat;lon;timestamp;P1;durP1;ratioP1;P2;durP2;ratioP2
4232;SDS011;2130;48.472;11.934;2023-04-03T00:01:00;19.33;;;1.90;;
4232;SDS011;2130;48.472;11.934;2023-04-03T00:03:49;18.83;;;1.93;;
4232;SDS011;2130;48.472;11.934;2023-04-03T00:06:38;20.80;;;2.27;;
4232;SDS011;2130;48.472;11.934;2023-04-03T00:09:27;21.03;;;2.00;;
4232;SDS011;2130;48.472;11.934;2023-04-03T00:12:15;18.90;;;1.97;;
4232;SDS011;2130;48.472;11.934;2023-04-03T00:15:04;19.30;;;2.20;;
4232;SDS011;2130;48.472;11.934;2023-04-03T00:17:54;18.90;;;1.70;;
4232;SDS011;2130;48.472;11.934;2023-04-03T00:20:43;19.17;;;1.67;;
4232;SDS011;2130;48.472;11.934;2023-04-03T00:23:31;19.60;;;1.67;;
4232;SDS011;2130;48.472;11.934;2023-04-03T00:26:20;18.87;;;1.80;;
4232;SDS011;2130;48.472;11.934;2023-04-03T00:29:08;21.87;;;1.90;;
4232;SDS011;2130;48.472;11.934;2023-04-03T00:31:57;18.23;;;1.70;;
4232;SDS011;2130;48.472;11.934;2023-04-03T00:34:47;18.83;;;2.13;;
4232;SDS011;2130;48.472;11.934;2023-04-03T00:37:35;19.20;;;2.00;;
4232;SDS011;2130;48.472;11.934;2023-04-03T00:40:24;17.80;;;1.97;;
4232;SDS011;2130;48.472;11.934;2023-04-03T00:43:14;18.70;;;1.77;;
4232;SDS011;2130;48.472;11.934;2023-04-03T00:46:03;17.70;;;1.63;;
4232;SDS011;2130;48.472;11.934;2023-04-03T00:48:52;19.57;;;1.67;;
4232;SDS011;2130;48.472;11.934;2023-04-03T00:51:41;19.10;;;1.67;;
4232;SDS011;2130;48.472;11.934;2023-04-03T00:54:30;19.30;;;1.73;;
4232;SDS011;2130;48.472;11.934;2023-04-03T00:57:18;19.33;;;2.13;;
4232;SDS011;2130;48.472;11.934;2023-04-03T01:00:08;19.20;;;1.90;;
4232;SDS011;2130;48.472;11.934;2023-04-03T01:02:59;17.80;;;1.80;;
4232;SDS011;2130;48.472;11.934;2023-04-03T01:05:51;18.37;;;1.50;;
4232;SDS011;2130;48.472;11.934;2023-04-03T01:08:41;19.93;;;1.97;;
4232;SDS011;2130;48.472;11.934;2023-04-03T01:11:29;19.13;;;1.70;;
4232;SDS011;2130;48.472;11.934;2023-04-03T01:14:19;21.00;;;2.03;;
4232;SDS011;2130;48.472;11.934;2023-04-03T01:17:21;18.57;;;1.63;;
4232;SDS011;2130;48.472;11.934;2023-04-03T01:23:31;24.80;;;1.90;;
4232;SDS011;2130;48.472;11.934;2023-04-03T01:26:27;21.80;;;2.00;;
4232;SDS011;2130;48.472;11.934;2023-04-03T01:29:16;19.20;;;1.60;;
4232;SDS011;2130;48.472;11.934;2023-04-03T01:32:06;21.40;;;1.73;;
4232;SDS011;2130;48.472;11.934;2023-04-03T01:34:54;18.87;;;1.73;;
4232;SDS011;2130;48.472;11.934;2023-04-03T01:37:43;20.40;;;1.57;;
4232;SDS011;2130;48.472;11.934;2023-04-03T01:40:32;19.63;;;1.83;;
4232;SDS011;2130;48.472;11.934;2023-04-03T01:43:22;22.77;;;1.90;;
4232;SDS011;2130;48.472;11.934;2023-04-03T01:46:11;19.37;;;1.87;;
4232;SDS011;2130;48.472;11.934;2023-04-03T01:49:01;20.50;;;1.93;;
4232;SDS011;2130;48.472;11.934;2023-04-03T01:51:50;20.07;;;1.70;;
4232;SDS011;2130;48.472;11.934;2023-04-03T01:54:38;20.40;;;2.00;;
4232;SDS011;2130;48.472;11.934;2023-04-03T01:57:27;21.23;;;1.97;;
4232;SDS011;2130;48.472;11.934;2023-04-03T02:00:16;20.43;;;1.73;;
4232;SDS011;2130;48.472;11.934;2023-04-03T02:03:04;19.60;;;1.77;;
4232;SDS011;2130;48.472;11.934;2023-04-03T02:05:55;24.47;;;1.87;;
4232;SDS011;2130;48.472;11.934;2023-04-03T02:08:45;19.63;;;1.70;;
4232;SDS011;2130;48.472;11.934;2023-04-03T02:11:34;21.13;;;2.10;;
4232;SDS011;2130;48.472;11.934;2023-04-03T02:14:22;20.40;;;1.83;;
4232;SDS011;2130;48.472;11.934;2023-04-03T02:17:11;19.63;;;2.20;;
4232;SDS011;2130;48.472;11.934;2023-04-03T02:19:59;21.13;;;1.97;;
4232;SDS011;2130;48.472;11.934;2023-04-03T02:22:49;20.67;;;2.00;;
4232;SDS011;2130;48.472;11.934;2023-04-03T02:25:37;21.30;;;2.00;;
4232;SDS011;2130;48.472;11.934;2023-04-03T02:28:25;21.10;;;1.87;;
4232;SDS011;2130;48.472;11.934;2023-04-03T02:31:15;23.43;;;1.83;;
4232;SDS011;2130;48.472;11.934;2023-04-03T02:34:05;21.20;;;1.73;;
4232;SDS011;2130;48.472;11.934;2023-04-03T02:36:55;20.10;;;1.60;;
4232;SDS011;2130;48.472;11.934;2023-04-03T02:39:45;21.33;;;1.70;;
4232;SDS011;2130;48.472;11.934;2023-04-03T02:42:34;20.03;;;2.10;;
4232;SDS011;2130;48.472;11.934;2023-04-03T02:45:22;21.30;;;1.93;;
4232;SDS011;2130;48.472;11.934;2023-04-03T02:48:12;23.23;;;2.30;;
4232;SDS011;2130;48.472;11.934;2023-04-03T02:51:01;21.10;;;2.23;;
4232;SDS011;2130;48.472;11.934;2023-04-03T02:53:50;21.03;;;1.93;;
4232;SDS011;2130;48.472;11.934;2023-04-03T02:56:44;20.27;;;2.00;;
4232;SDS011;2130;48.472;11.934;2023-04-03T02:59:32;22.47;;;1.83;;
4232;SDS011;2130;48.472;11.934;2023-04-03T03:02:21;21.03;;;1.90;;
4232;SDS011;2130;48.472;11.934;2023-04-03T03:05:09;20.67;;;2.10;;
4232;SDS011;2130;48.472;11.934;2023-04-03T03:07:58;21.63;;;2.30;;
4232;SDS011;2130;48.472;11.934;2023-04-03T03:10:47;20.57;;;1.70;;
4232;SDS011;2130;48.472;11.934;2023-04-03T03:13:37;21.90;;;2.17;;
4232;SDS011;2130;48.472;11.934;2023-04-03T03:16:50;22.60;;;1.70;;
4232;SDS011;2130;48.472;11.934;2023-04-03T03:19:39;20.40;;;1.80;;
4232;SDS011;2130;48.472;11.934;2023-04-03T03:22:27;20.60;;;1.93;;
4232;SDS011;2130;48.472;11.934;2023-04-03T03:25:18;21.70;;;2.20;;
4232;SDS011;2130;48.472;11.934;2023-04-03T03:28:07;20.13;;;1.90;;
4232;SDS011;2130;48.472;11.934;2023-04-03T03:30:57;22.30;;;1.73;;
4232;SDS011;2130;48.472;11.934;2023-04-03T03:33:45;19.90;;;1.67;;
4232;SDS011;2130;48.472;11.934;2023-04-03T03:36:33;22.60;;;2.00;;
4232;SDS011;2130;48.472;11.934;2023-04-03T03:39:22;22.27;;;2.17;;
4232;SDS011;2130;48.472;11.934;2023-04-03T03:42:10;20.00;;;2.10;;
4232;SDS011;2130;48.472;11.934;2023-04-03T03:44:59;28.53;;;2.20;;
4232;SDS011;2130;48.472;11.934;2023-04-03T03:47:51;20.33;;;1.97;;
4232;SDS011;2130;48.472;11.934;2023-04-03T03:50:40;20.37;;;2.33;;
4232;SDS011;2130;48.472;11.934;2023-04-03T03:53:28;20.10;;;2.00;;
4232;SDS011;2130;48.472;11.934;2023-04-03T03:56:22;25.53;;;2.67;;
4232;SDS011;2130;48.472;11.934;2023-04-03T03:59:11;19.63;;;2.17;;
4232;SDS011;2130;48.472;11.934;2023-04-03T04:02:00;19.90;;;1.77;;
4232;SDS011;2130;48.472;11.934;2023-04-03T04:04:50;21.70;;;2.00;;
4232;SDS011;2130;48.472;11.934;2023-04-03T04:07:39;19.00;;;1.77;;
4232;SDS011;2130;48.472;11.934;2023-04-03T04:10:27;19.40;;;1.90;;
4232;SDS011;2130;48.472;11.934;2023-04-03T04:13:17;19.90;;;1.63;;
4232;SDS011;2130;48.472;11.934;2023-04-03T04:16:06;20.23;;;1.70;;
4232;SDS011;2130;48.472;11.934;2023-04-03T04:18:55;21.30;;;1.97;;
4232;SDS011;2130;48.472;11.934;2023-04-03T04:21:46;24.27;;;2.07;;
4232;SDS011;2130;48.472;11.934;2023-04-03T04:24:35;21.60;;;1.93;;
4232;SDS011;2130;48.472;11.934;2023-04-03T04:27:26;20.17;;;2.13;;
4232;SDS011;2130;48.472;11.934;2023-04-03T04:30:15;20.97;;;1.90;;
4232;SDS011;2130;48.472;11.934;2023-04-03T04:33:06;23.73;;;2.03;;
4232;SDS011;2130;48.472;11.934;2023-04-03T04:35:55;21.37;;;2.07;;
4232;SDS011;2130;48.472;11.934;2023-04-03T04:38:45;19.93;;;1.70;;
4232;SDS011;2130;48.472;11.934;2023-04-03T04:41:34;21.93;;;2.03;;
4232;SDS011;2130;48.472;11.934;2023-04-03T04:44:24;21.70;;;2.43;;
4232;SDS011;2130;48.472;11.934;2023-04-03T04:47:13;20.93;;;2.13;;
4232;SDS011;2130;48.472;11.934;2023-04-03T04:50:02;21.70;;;2.47;;
4232;SDS011;2130;48.472;11.934;2023-04-03T04:52:52;23.60;;;2.10;;
4232;SDS011;2130;48.472;11.934;2023-04-03T04:55:41;20.93;;;1.90;;
4232;SDS011;2130;48.472;11.934;2023-04-03T04:58:30;20.93;;;2.50;;
4232;SDS011;2130;48.472;11.934;2023-04-03T05:01:21;23.33;;;2.47;;
4232;SDS011;2130;48.472;11.934;2023-04-03T05:04:35;23.30;;;2.40;;
4232;SDS011;2130;48.472;11.934;2023-04-03T05:07:30;23.13;;;2.33;;
4232;SDS011;2130;48.472;11.934;2023-04-03T05:10:19;23.20;;;2.23;;
4232;SDS011;2130;48.472;11.934;2023-04-03T05:13:08;24.07;;;2.30;;
4232;SDS011;2130;48.472;11.934;2023-04-03T05:15:57;24.73;;;2.20;;
4232;SDS011;2130;48.472;11.934;2023-04-03T05:18:47;21.00;;;2.10;;
4232;SDS011;2130;48.472;11.934;2023-04-03T05:21:39;21.30;;;1.97;;
4232;SDS011;2130;48.472;11.934;2023-04-03T05:24:32;20.53;;;2.13;;
4232;SDS011;2130;48.472;11.934;2023-04-03T05:27:22;22.20;;;2.10;;
4232;SDS011;2130;48.472;11.934;2023-04-03T05:30:15;23.00;;;2.17;;
4232;SDS011;2130;48.472;11.934;2023-04-03T05:33:04;24.97;;;2.27;;
4232;SDS011;2130;48.472;11.934;2023-04-03T05:36:06;22.67;;;2.30;;
4232;SDS011;2130;48.472;11.934;2023-04-03T05:39:01;24.93;;;2.63;;
4232;SDS011;2130;48.472;11.934;2023-04-03T05:41:50;23.60;;;2.50;;
4232;SDS011;2130;48.472;11.934;2023-04-03T05:44:39;21.10;;;1.90;;
4232;SDS011;2130;48.472;11.934;2023-04-03T05:47:29;22.23;;;2.83;;
4232;SDS011;2130;48.472;11.934;2023-04-03T05:50:18;21.73;;;1.80;;
4232;SDS011;2130;48.472;11.934;2023-04-03T05:53:09;27.73;;;2.40;;
4232;SDS011;2130;48.472;11.934;2023-04-03T05:56:02;22.93;;;2.20;;
4232;SDS011;2130;48.472;11.934;2023-04-03T05:58:56;22.67;;;2.20;;
4232;SDS011;2130;48.472;11.934;2023-04-03T06:01:45;24.13;;;2.47;;
4232;SDS011;2130;48.472;11.934;2023-04-03T06:04:36;23.23;;;2.07;;
4232;SDS011;2130;48.472;11.934;2023-04-03T06:07:26;22.00;;;2.60;;
4232;SDS011;2130;48.472;11.934;2023-04-03T06:10:15;22.00;;;2.50;;
4232;SDS011;2130;48.472;11.934;2023-04-03T06:13:04;21.23;;;2.23;;
4232;SDS011;2130;48.472;11.934;2023-04-03T06:15:53;22.07;;;2.53;;
4232;SDS011;2130;48.472;11.934;2023-04-03T06:18:42;23.63;;;2.47;;
4232;SDS011;2130;48.472;11.934;2023-04-03T06:21:32;25.43;;;2.47;;
4232;SDS011;2130;48.472;11.934;2023-04-03T06:24:22;22.13;;;2.10;;
4232;SDS011;2130;48.472;11.934;2023-04-03T06:27:12;23.60;;;2.30;;
4232;SDS011;2130;48.472;11.934;2023-04-03T06:30:00;23.33;;;2.70;;
4232;SDS011;2130;48.472;11.934;2023-04-03T06:32:49;22.63;;;2.50;;
4232;SDS011;2130;48.472;11.934;2023-04-03T06:35:37;25.30;;;2.57;;
4232;SDS011;2130;48.472;11.934;2023-04-03T06:38:27;23.30;;;2.30;;
4232;SDS011;2130;48.472;11.934;2023-04-03T06:41:16;22.93;;;2.23;;
4232;SDS011;2130;48.472;11.934;2023-04-03T06:44:05;21.70;;;1.90;;
4232;SDS011;2130;48.472;11.934;2023-04-03T06:46:54;22.53;;;2.57;;
4232;SDS011;2130;48.472;11.934;2023-04-03T06:49:43;22.10;;;2.30;;
4232;SDS011;2130;48.472;11.934;2023-04-03T06:52:32;24.43;;;2.73;;
4232;SDS011;2130;48.472;11.934;2023-04-03T06:55:22;20.90;;;2.30;;
4232;SDS011;2130;48.472;11.934;2023-04-03T06:58:11;21.37;;;2.17;;
4232;SDS011;2130;48.472;11.934;2023-04-03T07:00:59;20.23;;;2.37;;
4232;SDS011;2130;48.472;11.934;2023-04-03T07:03:48;20.50;;;2.47;;
4232;SDS011;2130;48.472;11.934;2023-04-03T07:06:37;22.50;;;2.80;;
4232;SDS011;2130;48.472;11.934;2023-04-03T07:09:25;23.07;;;2.63;;
4232;SDS011;2130;48.472;11.934;2023-04-03T07:12:15;21.63;;;2.20;;
4232;SDS011;2130;48.472;11.934;2023-04-03T07:15:04;21.27;;;1.80;;
4232;SDS011;2130;48.472;11.934;2023-04-03T07:17:54;18.60;;;2.33;;
4232;SDS011;2130;48.472;11.934;2023-04-03T07:20:43;19.70;;;2.03;;
4232;SDS011;2130;48.472;11.934;2023-04-03T07:23:32;19.03;;;2.23;;
4232;SDS011;2130;48.472;11.934;2023-04-03T07:26:20;19.57;;;2.03;;
4232;SDS011;2130;48.472;11.934;2023-04-03T07:29:10;19.00;;;2.17;;
4232;SDS011;2130;48.472;11.934;2023-04-03T07:31:59;22.07;;;2.00;;
4232;SDS011;2130;48.472;11.934;2023-04-03T07:34:47;20.30;;;2.10;;
4232;SDS011;2130;48.472;11.934;2023-04-03T07:37:36;20.30;;;2.20;;
4232;SDS011;2130;48.472;11.934;2023-04-03T07:40:24;20.03;;;2.60;;
4232;SDS011;2130;48.472;11.934;2023-04-03T07:43:13;19.27;;;2.07;;
4232;SDS011;2130;48.472;11.934;2023-04-03T07:46:04;19.23;;;1.80;;
4232;SDS011;2130;48.472;11.934;2023-04-03T07:48:53;18.70;;;2.63;;
4232;SDS011;2130;48.472;11.934;2023-04-03T07:51:43;20.20;;;2.10;;
4232;SDS011;2130;48.472;11.934;2023-04-03T07:54:32;22.73;;;2.20;;
4232;SDS011;2130;48.472;11.934;2023-04-03T07:57:20;17.40;;;1.97;;
4232;SDS011;2130;48.472;11.934;2023-04-03T08:00:09;19.00;;;1.80;;
4232;SDS011;2130;48.472;11.934;2023-04-03T08:03:01;18.93;;;1.77;;
4232;SDS011;2130;48.472;11.934;2023-04-03T08:05:50;18.10;;;1.67;;
4232;SDS011;2130;48.472;11.934;2023-04-03T08:08:40;17.97;;;2.10;;
4232;SDS011;2130;48.472;11.934;2023-04-03T08:11:29;24.40;;;2.37;;
4232;SDS011;2130;48.472;11.934;2023-04-03T08:14:18;17.33;;;1.87;;
4232;SDS011;2130;48.472;11.934;2023-04-03T08:17:07;16.70;;;1.63;;
4232;SDS011;2130;48.472;11.934;2023-04-03T08:19:59;19.10;;;1.83;;
4232;SDS011;2130;48.472;11.934;2023-04-03T08:22:48;17.03;;;1.60;;
4232;SDS011;2130;48.472;11.934;2023-04-03T08:25:37;19.53;;;2.13;;
4232;SDS011;2130;48.472;11.934;2023-04-03T08:28:26;16.70;;;1.50;;
4232;SDS011;2130;48.472;11.934;2023-04-03T08:31:15;16.33;;;1.73;;
4232;SDS011;2130;48.472;11.934;2023-04-03T08:34:05;16.87;;;1.57;;
4232;SDS011;2130;48.472;11.934;2023-04-03T08:36:55;15.93;;;1.57;;
4232;SDS011;2130;48.472;11.934;2023-04-03T08:39:43;17.27;;;1.50;;
4232;SDS011;2130;48.472;11.934;2023-04-03T08:42:36;15.40;;;1.50;;
4232;SDS011;2130;48.472;11.934;2023-04-03T08:45:32;17.80;;;1.43;;
4232;SDS011;2130;48.472;11.934;2023-04-03T08:48:26;16.70;;;1.50;;
4232;SDS011;2130;48.472;11.934;2023-04-03T08:51:17;18.97;;;1.50;;
4232;SDS011;2130;48.472;11.934;2023-04-03T08:54:23;15.67;;;1.10;;
4232;SDS011;2130;48.472;11.934;2023-04-03T08:57:15;17.00;;;2.00;;
4232;SDS011;2130;48.472;11.934;2023-04-03T09:00:07;17.00;;;1.30;;
4232;SDS011;2130;48.472;11.934;2023-04-03T09:03:04;16.40;;;1.53;;
4232;SDS011;2130;48.472;11.934;2023-04-03T09:05:57;19.10;;;1.40;;
4232;SDS011;2130;48.472;11.934;2023-04-03T09:08:49;16.40;;;1.30;;
4232;SDS011;2130;48.472;11.934;2023-04-03T09:11:44;16.00;;;1.40;;
4232;SDS011;2130;48.472;11.934;2023-04-03T09:14:39;17.00;;;1.23;;
4232;SDS011;2130;48.472;11.934;2023-04-03T09:17:33;18.17;;;1.67;;
4232;SDS011;2130;48.472;11.934;2023-04-03T09:20:27;17.40;;;1.50;;
4232;SDS011;2130;48.472;11.934;2023-04-03T09:23:24;17.43;;;1.40;;
4232;SDS011;2130;48.472;11.934;2023-04-03T09:26:17;15.03;;;1.20;;
4232;SDS011;2130;48.472;11.934;2023-04-03T09:29:10;16.37;;;1.47;;
4232;SDS011;2130;48.472;11.934;2023-04-03T09:32:09;16.37;;;1.10;;
4232;SDS011;2130;48.472;11.934;2023-04-03T09:35:15;16.87;;;1.50;;
4232;SDS011;2130;48.472;11.934;2023-04-03T09:38:34;16.13;;;1.73;;
4232;SDS011;2130;48.472;11.934;2023-04-03T09:41:40;16.97;;;1.50;;
4232;SDS011;2130;48.472;11.934;2023-04-03T09:44:44;15.63;;;1.40;;
4232;SDS011;2130;48.472;11.934;2023-04-03T09:48:07;16.77;;;1.50;;
4232;SDS011;2130;48.472;11.934;2023-04-03T09:51:08;17.37;;;1.50;;
4232;SDS011;2130;48.472;11.934;2023-04-03T09:57:37;15.13;;;1.30;;
4232;SDS011;2130;48.472;11.934;2023-04-03T10:00:37;17.60;;;1.20;;
4232;SDS011;2130;48.472;11.934;2023-04-03T10:03:34;19.60;;;2.10;;
4232;SDS011;2130;48.472;11.934;2023-04-03T10:06:24;14.90;;;1.10;;
4232;SDS011;2130;48.472;11.934;2023-04-03T10:09:19;15.43;;;1.20;;
4232;SDS011;2130;48.472;11.934;2023-04-03T10:12:09;15.70;;;1.07;;
4232;SDS011;2130;48.472;11.934;2023-04-03T10:15:01;15.47;;;1.30;;
4232;SDS011;2130;48.472;11.934;2023-04-03T10:17:53;17.27;;;1.37;;
4232;SDS011;2130;48.472;11.934;2023-04-03T10:20:44;18.50;;;1.60;;
4232;SDS011;2130;48.472;11.934;2023-04-03T10:23:36;14.97;;;1.00;;
4232;SDS011;2130;48.472;11.934;2023-04-03T10:26:29;15.53;;;1.10;;
4232;SDS011;2130;48.472;11.934;2023-04-03T10:29:36;19.30;;;1.60;;
4232;SDS011;2130;48.472;11.934;2023-04-03T10:32:33;15.60;;;1.17;;
4232;SDS011;2130;48.472;11.934;2023-04-03T10:35:37;15.57;;;1.20;;
4232;SDS011;2130;48.472;11.934;2023-04-03T10:38:32;15.10;;;1.07;;
4232;SDS011;2130;48.472;11.934;2023-04-03T10:41:23;16.37;;;1.03;;
4232;SDS011;2130;48.472;11.934;2023-04-03T10:44:20;17.30;;;1.20;;
4232;SDS011;2130;48.472;11.934;2023-04-03T10:47:16;15.73;;;1.03;;
4232;SDS011;2130;48.472;11.934;2023-04-03T10:50:12;16.80;;;1.13;;
4232;SDS011;2130;48.472;11.934;2023-04-03T10:53:14;18.60;;;1.23;;
4232;SDS011;2130;48.472;11.934;2023-04-03T10:56:08;15.80;;;1.00;;
4232;SDS011;2130;48.472;11.934;2023-04-03T10:59:02;17.50;;;1.77;;
4232;SDS011;2130;48.472;11.934;2023-04-03T11:02:00;15.37;;;1.23;;
4232;SDS011;2130;48.472;11.934;2023-04-03T11:04:52;19.33;;;1.50;;
4232;SDS011;2130;48.472;11.934;2023-04-03T11:07:43;16.17;;;1.20;;
4232;SDS011;2130;48.472;11.934;2023-04-03T11:10:37;16.00;;;1.20;;
4232;SDS011;2130;48.472;11.934;2023-04-03T11:13:31;15.93;;;1.23;;
4232;SDS011;2130;48.472;11.934;2023-04-03T11:16:23;16.80;;;1.40;;
4232;SDS011;2130;48.472;11.934;2023-04-03T11:19:14;15.30;;;1.20;;
4232;SDS011;2130;48.472;11.934;2023-04-03T11:22:11;15.60;;;1.30;;
4232;SDS011;2130;48.472;11.934;2023-04-03T11:25:06;15.20;;;1.10;;
4232;SDS011;2130;48.472;11.934;2023-04-03T11:28:11;15.20;;;1.00;;
4232;SDS011;2130;48.472;11.934;2023-04-03T11:31:02;16.70;;;1.10;;
4232;SDS011;2130;48.472;11.934;2023-04-03T11:34:02;15.20;;;1.00;;
4232;SDS011;2130;48.472;11.934;2023-04-03T11:36:57;15.80;;;1.10;;
4232;SDS011;2130;48.472;11.934;2023-04-03T11:39:50;16.20;;;1.00;;
4232;SDS011;2130;48.472;11.934;2023-04-03T11:42:41;16.63;;;1.10;;
4232;SDS011;2130;48.472;11.934;2023-04-03T11:45:36;17.00;;;1.40;;
4232;SDS011;2130;48.472;11.934;2023-04-03T11:48:44;15.37;;;1.10;;
4232;SDS011;2130;48.472;11.934;2023-04-03T11:51:41;16.47;;;1.10;;
4232;SDS011;2130;48.472;11.934;2023-04-03T11:57:46;15.50;;;1.07;;
4232;SDS011;2130;48.472;11.934;2023-04-03T12:04:07;19.83;;;1.70;;
4232;SDS011;2130;48.472;11.934;2023-04-03T12:10:15;16.70;;;1.23;;
4232;SDS011;2130;48.472;11.934;2023-04-03T12:13:17;19.90;;;1.20;;
4232;SDS011;2130;48.472;11.934;2023-04-03T12:16:07;15.67;;;1.00;;
4232;SDS011;2130;48.472;11.934;2023-04-03T12:22:28;15.93;;;1.20;;
4232;SDS011;2130;48.472;11.934;2023-04-03T12:28:36;17.10;;;1.20;;
4232;SDS011;2130;48.472;11.934;2023-04-03T12:31:25;15.90;;;1.10;;
4232;SDS011;2130;48.472;11.934;2023-04-03T12:34:26;16.37;;;1.00;;
4232;SDS011;2130;48.472;11.934;2023-04-03T12:37:34;17.53;;;2.30;;
4232;SDS011;2130;48.472;11.934;2023-04-03T12:40:30;15.77;;;1.10;;
4232;SDS011;2130;48.472;11.934;2023-04-03T12:43:24;16.20;;;1.10;;
4232;SDS011;2130;48.472;11.934;2023-04-03T12:46:21;15.73;;;1.00;;
4232;SDS011;2130;48.472;11.934;2023-04-03T12:49:22;16.57;;;1.53;;
4232;SDS011;2130;48.472;11.934;2023-04-03T12:52:20;16.30;;;1.20;;
4232;SDS011;2130;48.472;11.934;2023-04-03T12:55:20;16.37;;;1.20;;
4232;SDS011;2130;48.472;11.934;2023-04-03T12:58:16;15.90;;;0.97;;
4232;SDS011;2130;48.472;11.934;2023-04-03T13:01:09;16.23;;;1.10;;
4232;SDS011;2130;48.472;11.934;2023-04-03T13:03:59;15.77;;;1.00;;
4232;SDS011;2130;48.472;11.934;2023-04-03T13:06:47;16.70;;;1.10;;
4232;SDS011;2130;48.472;11.934;2023-04-03T13:09:37;15.57;;;1.10;;
4232;SDS011;2130;48.472;11.934;2023-04-03T13:12:25;16.33;;;1.20;;
4232;SDS011;2130;48.472;11.934;2023-04-03T13:15:17;15.00;;;1.20;;
4232;SDS011;2130;48.472;11.934;2023-04-03T13:18:20;15.77;;;1.10;;
4232;SDS011;2130;48.472;11.934;2023-04-03T13:21:12;16.60;;;1.10;;
4232;SDS011;2130;48.472;11.934;2023-04-03T13:24:02;15.70;;;1.00;;
4232;SDS011;2130;48.472;11.934;2023-04-03T13:27:02;19.60;;;1.20;;
4232;SDS011;2130;48.472;11.934;2023-04-03T13:29:51;15.77;;;1.10;;
4232;SDS011;2130;48.472;11.934;2023-04-03T13:32:41;16.10;;;1.23;;
4232;SDS011;2130;48.472;11.934;2023-04-03T13:35:32;15.60;;;1.10;;
4232;SDS011;2130;48.472;11.934;2023-04-03T13:38:23;15.33;;;1.00;;
4232;SDS011;2130;48.472;11.934;2023-04-03T13:41:23;15.50;;;1.00;;
4232;SDS011;2130;48.472;11.934;2023-04-03T13:47:22;15.47;;;1.03;;
4232;SDS011;2130;48.472;11.934;2023-04-03T13:50:14;16.10;;;1.00;;
4232;SDS011;2130;48.472;11.934;2023-04-03T13:53:09;15.07;;;1.10;;
4232;SDS011;2130;48.472;11.934;2023-04-03T13:56:05;15.90;;;1.03;;
4232;SDS011;2130;48.472;11.934;2023-04-03T13:58:57;15.90;;;1.30;;
4232;SDS011;2130;48.472;11.934;2023-04-03T14:01:50;15.67;;;1.00;;
4232;SDS011;2130;48.472;11.934;2023-04-03T14:04:46;15.80;;;1.07;;
4232;SDS011;2130;48.472;11.934;2023-04-03T14:07:39;15.60;;;1.17;;
4232;SDS011;2130;48.472;11.934;2023-04-03T14:10:28;15.97;;;1.00;;
4232;SDS011;2130;48.472;11.934;2023-04-03T14:13:17;15.37;;;1.30;;
4232;SDS011;2130;48.472;11.934;2023-04-03T14:16:06;15.53;;;1.10;;
4232;SDS011;2130;48.472;11.934;2023-04-03T14:19:03;15.90;;;0.90;;
4232;SDS011;2130;48.472;11.934;2023-04-03T14:21:52;15.70;;;1.00;;
4232;SDS011;2130;48.472;11.934;2023-04-03T14:24:41;16.60;;;1.10;;
4232;SDS011;2130;48.472;11.934;2023-04-03T14:27:33;17.90;;;1.20;;
4232;SDS011;2130;48.472;11.934;2023-04-03T14:30:23;15.57;;;1.10;;
4232;SDS011;2130;48.472;11.934;2023-04-03T14:33:13;15.87;;;1.00;;
4232;SDS011;2130;48.472;11.934;2023-04-03T14:36:09;16.40;;;1.00;;
4232;SDS011;2130;48.472;11.934;2023-04-03T14:39:00;16.60;;;1.10;;
4232;SDS011;2130;48.472;11.934;2023-04-03T14:41:49;17.10;;;1.30;;
4232;SDS011;2130;48.472;11.934;2023-04-03T14:44:37;16.90;;;1.13;;
4232;SDS011;2130;48.472;11.934;2023-04-03T14:47:26;16.60;;;1.00;;
4232;SDS011;2130;48.472;11.934;2023-04-03T14:50:19;16.40;;;1.00;;
4232;SDS011;2130;48.472;11.934;2023-04-03T14:53:11;16.07;;;1.10;;
4232;SDS011;2130;48.472;11.934;2023-04-03T14:55:59;17.20;;;1.10;;
4232;SDS011;2130;48.472;11.934;2023-04-03T14:58:48;15.80;;;1.00;;
4232;SDS011;2130;48.472;11.934;2023-04-03T15:01:37;16.07;;;1.20;;
4232;SDS011;2130;48.472;11.934;2023-04-03T15:04:26;17.17;;;1.20;;
4232;SDS011;2130;48.472;11.934;2023-04-03T15:07:15;16.43;;;1.10;;
4232;SDS011;2130;48.472;11.934;2023-04-03T15:10:14;16.07;;;1.20;;
4232;SDS011;2130;48.472;11.934;2023-04-03T15:13:04;16.63;;;2.90;;
4232;SDS011;2130;48.472;11.934;2023-04-03T15:15:52;16.60;;;1.10;;
4232;SDS011;2130;48.472;11.934;2023-04-03T15:18:41;15.87;;;1.10;;
4232;SDS011;2130;48.472;11.934;2023-04-03T15:21:30;16.50;;;1.40;;
4232;SDS011;2130;48.472;11.934;2023-04-03T15:24:18;15.83;;;1.17;;
4232;SDS011;2130;48.472;11.934;2023-04-03T15:27:08;17.20;;;1.13;;
4232;SDS011;2130;48.472;11.934;2023-04-03T15:29:56;17.13;;;1.37;;
4232;SDS011;2130;48.472;11.934;2023-04-03T15:32:45;16.13;;;1.50;;
4232;SDS011;2130;48.472;11.934;2023-04-03T15:35:33;15.60;;;1.10;;
4232;SDS011;2130;48.472;11.934;2023-04-03T15:38:22;16.50;;;1.07;;
4232;SDS011;2130;48.472;11.934;2023-04-03T15:41:10;15.10;;;1.07;;
4232;SDS011;2130;48.472;11.934;2023-04-03T15:44:00;15.10;;;1.00;;
4232;SDS011;2130;48.472;11.934;2023-04-03T15:46:48;15.70;;;1.20;;
4232;SDS011;2130;48.472;11.934;2023-04-03T15:49:38;16.90;;;1.10;;
4232;SDS011;2130;48.472;11.934;2023-04-03T15:52:27;16.30;;;1.23;;
4232;SDS011;2130;48.472;11.934;2023-04-03T15:55:15;16.90;;;1.40;;
4232;SDS011;2130;48.472;11.934;2023-04-03T15:58:04;16.83;;;1.77;;
4232;SDS011;2130;48.472;11.934;2023-04-03T16:00:54;16.50;;;1.10;;
4232;SDS011;2130;48.472;11.934;2023-04-03T16:03:42;16.10;;;1.20;;
4232;SDS011;2130;48.472;11.934;2023-04-03T16:06:32;15.43;;;1.20;;
4232;SDS011;2130;48.472;11.934;2023-04-03T16:09:20;15.90;;;1.00;;
4232;SDS011;2130;48.472;11.934;2023-04-03T16:12:09;16.70;;;1.10;;
4232;SDS011;2130;48.472;11.934;2023-04-03T16:14:57;17.83;;;1.30;;
4232;SDS011;2130;48.472;11.934;2023-04-03T16:17:47;16.47;;;1.57;;
4232;SDS011;2130;48.472;11.934;2023-04-03T16:20:36;16.17;;;1.13;;
4232;SDS011;2130;48.472;11.934;2023-04-03T16:23:25;17.20;;;1.30;;
4232;SDS011;2130;48.472;11.934;2023-04-03T16:26:13;16.70;;;1.10;;
4232;SDS011;2130;48.472;11.934;2023-04-03T16:29:01;16.60;;;1.43;;
4232;SDS011;2130;48.472;11.934;2023-04-03T16:31:50;16.50;;;1.17;;
4232;SDS011;2130;48.472;11.934;2023-04-03T16:34:40;16.70;;;1.10;;
4232;SDS011;2130;48.472;11.934;2023-04-03T16:37:28;16.23;;;1.30;;
4232;SDS011;2130;48.472;11.934;2023-04-03T16:40:19;16.10;;;1.07;;
4232;SDS011;2130;48.472;11.934;2023-04-03T16:43:07;16.30;;;1.10;;
4232;SDS011;2130;48.472;11.934;2023-04-03T16:45:56;15.73;;;1.20;;
4232;SDS011;2130;48.472;11.934;2023-04-03T16:48:44;15.43;;;1.10;;
4232;SDS011;2130;48.472;11.934;2023-04-03T16:51:34;16.30;;;1.20;;
4232;SDS011;2130;48.472;11.934;2023-04-03T16:54:22;18.10;;;1.37;;
4232;SDS011;2130;48.472;11.934;2023-04-03T16:57:11;16.40;;;1.17;;
4232;SDS011;2130;48.472;11.934;2023-04-03T16:59:59;9.97;;;1.00;;
4232;SDS011;2130;48.472;11.934;2023-04-03T17:02:48;15.63;;;1.10;;
4232;SDS011;2130;48.472;11.934;2023-04-03T17:05:36;16.40;;;1.23;;
4232;SDS011;2130;48.472;11.934;2023-04-03T17:08:26;17.43;;;1.30;;
4232;SDS011;2130;48.472;11.934;2023-04-03T17:11:15;15.63;;;1.20;;
4232;SDS011;2130;48.472;11.934;2023-04-03T17:14:03;16.00;;;1.13;;
4232;SDS011;2130;48.472;11.934;2023-04-03T17:16:52;15.13;;;1.10;;
4232;SDS011;2130;48.472;11.934;2023-04-03T17:19:40;15.43;;;1.20;;
4232;SDS011;2130;48.472;11.934;2023-04-03T17:22:29;14.97;;;1.10;;
4232;SDS011;2130;48.472;11.934;2023-04-03T17:25:20;14.90;;;1.10;;
4232;SDS011;2130;48.472;11.934;2023-04-03T17:28:08;19.33;;;1.40;;
4232;SDS011;2130;48.472;11.934;2023-04-03T17:30:58;16.63;;;1.17;;
4232;SDS011;2130;48.472;11.934;2023-04-03T17:33:47;17.07;;;1.20;;
4232;SDS011;2130;48.472;11.934;2023-04-03T17:36:35;16.10;;;1.30;;
4232;SDS011;2130;48.472;11.934;2023-04-03T17:39:23;15.50;;;1.20;;